Aviation Digital Data Service (ADDS)

Output produced by METARs form (1347 UTC 01 October 2016)
found at http://aviationweather.gov/adds/metars/
 
KRWI 011219Z 0112/0212 21003KT 2SM BR SCT006 
     TEMPO 0112/0113 1SM BR VV002 
     FM011330 17005KT P6SM BKN020 
     FM012100 VRB03KT P6SM VCSH OVC020 
     TEMPO 0121/0124 3SM SHRA BR OVC012